createdAt,value
2023-05-04T00:00:11.450Z,15.53
2023-05-04T00:02:44.715Z,15.72
2023-05-04T00:05:17.152Z,15.50
2023-05-04T00:07:49.896Z,15.30
2023-05-04T00:10:22.078Z,15.27
2023-05-04T00:12:54.996Z,15.25
2023-05-04T00:15:28.566Z,14.55
2023-05-04T00:18:00.607Z,14.70
2023-05-04T00:20:33.252Z,15.22
2023-05-04T00:23:05.994Z,15.19
2023-05-04T00:25:38.678Z,14.95
2023-05-04T00:28:11.582Z,15.37
2023-05-04T00:30:43.736Z,14.96
2023-05-04T00:36:11.012Z,14.44
2023-05-04T00:38:54.864Z,14.59
2023-05-04T00:41:27.373Z,14.24
2023-05-04T00:43:59.866Z,15.05
2023-05-04T00:46:34.829Z,13.82
2023-05-04T00:49:08.496Z,14.36
2023-05-04T00:51:41.098Z,14.12
2023-05-04T00:54:18.451Z,14.35
2023-05-04T00:56:50.467Z,14.12
2023-05-04T00:59:23.340Z,13.74
2023-05-04T01:01:55.397Z,13.54
2023-05-04T01:04:28.283Z,14.13
2023-05-04T01:07:21.795Z,14.23
2023-05-04T01:10:05.456Z,14.68
2023-05-04T01:12:49.095Z,15.29
2023-05-04T01:15:23.154Z,13.61
2023-05-04T01:17:55.167Z,14.45
2023-05-04T01:20:28.385Z,14.26
2023-05-04T01:23:02.104Z,14.36
2023-05-04T01:26:04.393Z,13.15
2023-05-04T01:28:45.162Z,13.75
2023-05-04T01:31:23.410Z,14.32
2023-05-04T01:33:56.548Z,14.84
2023-05-04T01:36:29.668Z,14.92
2023-05-04T01:41:57.523Z,14.10
2023-05-04T01:47:02.550Z,14.37
2023-05-04T01:49:34.908Z,14.38
2023-05-04T01:52:07.311Z,14.05
2023-05-04T01:54:39.295Z,13.97
2023-05-04T02:00:06.248Z,13.75
2023-05-04T02:02:48.453Z,13.94
2023-05-04T02:05:24.142Z,14.41
2023-05-04T02:07:56.481Z,13.23
2023-05-04T02:10:28.905Z,13.99
2023-05-04T02:13:01.856Z,13.77
2023-05-04T02:15:33.888Z,14.33
2023-05-04T02:18:28.190Z,14.47
2023-05-04T02:21:00.755Z,13.61
2023-05-04T02:23:33.923Z,13.69
2023-05-04T02:26:06.705Z,12.90
2023-05-04T02:28:39.508Z,12.80
2023-05-04T02:31:11.912Z,12.56
2023-05-04T02:33:44.376Z,13.33
2023-05-04T02:36:16.739Z,13.79
2023-05-04T02:38:49.525Z,13.56
2023-05-04T02:41:21.890Z,13.24
2023-05-04T02:43:54.605Z,13.24
2023-05-04T02:46:27.344Z,13.50
2023-05-04T02:49:00.048Z,12.81
2023-05-04T02:51:31.978Z,13.32
2023-05-04T02:54:05.101Z,13.42
2023-05-04T02:56:37.403Z,13.44
2023-05-04T02:59:10.778Z,14.23
2023-05-04T03:01:43.632Z,14.52
2023-05-04T03:04:16.055Z,14.07
2023-05-04T03:06:48.921Z,14.23
2023-05-04T03:09:21.291Z,14.03
2023-05-04T03:11:54.313Z,14.44
2023-05-04T03:14:26.388Z,14.02
2023-05-04T03:16:59.659Z,13.96
2023-05-04T03:19:32.698Z,12.41
2023-05-04T03:22:04.790Z,12.12
2023-05-04T03:24:38.164Z,11.87
2023-05-04T03:27:10.558Z,11.81
2023-05-04T03:29:43.674Z,11.76
2023-05-04T03:32:17.013Z,11.73
2023-05-04T03:34:49.146Z,11.54
2023-05-04T03:37:23.970Z,11.47
2023-05-04T03:39:56.180Z,11.28
2023-05-04T03:42:29.061Z,11.15
2023-05-04T03:45:03.897Z,11.11
2023-05-04T03:47:37.423Z,11.05
2023-05-04T03:50:11.144Z,11.00
2023-05-04T03:52:43.468Z,10.96
2023-05-04T03:55:17.014Z,10.90
2023-05-04T03:57:54.520Z,10.81
2023-05-04T04:00:27.186Z,10.74
2023-05-04T04:03:08.343Z,11.25
2023-05-04T04:05:42.109Z,12.03
2023-05-04T04:08:15.059Z,10.87
2023-05-04T04:10:47.410Z,10.54
2023-05-04T04:13:20.379Z,10.39
2023-05-04T04:15:52.341Z,10.32
2023-05-04T04:18:25.099Z,10.23
2023-05-04T04:20:57.074Z,10.13
2023-05-04T04:23:30.138Z,10.08
2023-05-04T04:26:02.786Z,10.05
2023-05-04T04:28:34.677Z,10.04
2023-05-04T04:31:07.444Z,10.00
2023-05-04T04:33:39.347Z,9.98
2023-05-04T04:36:13.117Z,10.00
2023-05-04T04:38:47.233Z,10.05
2023-05-04T04:41:20.492Z,10.06
2023-05-04T04:43:53.345Z,10.00
2023-05-04T04:46:25.385Z,9.85
2023-05-04T04:48:58.971Z,9.88
2023-05-04T04:51:32.137Z,9.84
2023-05-04T04:54:04.470Z,9.85
2023-05-04T04:56:40.902Z,9.86
2023-05-04T04:59:14.053Z,9.89
2023-05-04T05:01:47.090Z,9.94
2023-05-04T05:04:19.638Z,9.96
2023-05-04T05:06:54.519Z,10.09
2023-05-04T05:09:26.841Z,10.17
2023-05-04T05:11:59.674Z,10.12
2023-05-04T05:14:35.147Z,10.14
2023-05-04T05:17:09.209Z,10.19
2023-05-04T05:19:42.354Z,10.25
2023-05-04T05:22:15.049Z,10.19
2023-05-04T05:24:47.673Z,10.21
2023-05-04T05:27:20.031Z,10.26
2023-05-04T05:32:49.332Z,10.56
2023-05-04T05:35:23.325Z,10.60
2023-05-04T05:37:55.362Z,10.75
2023-05-04T05:40:28.986Z,10.90
2023-05-04T05:43:02.340Z,10.99
2023-05-04T05:45:37.884Z,11.07
2023-05-04T05:48:09.863Z,11.26
2023-05-04T05:50:43.197Z,11.32
2023-05-04T05:53:15.294Z,11.38
2023-05-04T05:55:48.450Z,11.50
2023-05-04T05:58:22.358Z,11.63
2023-05-04T06:00:54.926Z,11.71
2023-05-04T06:03:28.320Z,11.69
2023-05-04T06:06:00.898Z,11.83
2023-05-04T06:08:33.959Z,11.94
2023-05-04T06:11:06.212Z,12.00
2023-05-04T06:13:40.072Z,12.03
2023-05-04T06:16:12.663Z,12.13
2023-05-04T06:18:44.758Z,13.59
2023-05-04T06:21:19.601Z,14.21
2023-05-04T06:23:54.251Z,14.35
2023-05-04T06:26:27.011Z,13.70
2023-05-04T06:29:00.059Z,13.46
2023-05-04T06:31:31.994Z,14.95
2023-05-04T06:34:04.845Z,15.40
2023-05-04T06:36:37.279Z,15.47
2023-05-04T06:39:10.351Z,15.09
2023-05-04T06:41:43.366Z,15.24
2023-05-04T06:44:17.615Z,14.63
2023-05-04T06:46:50.938Z,15.24
2023-05-04T06:49:26.761Z,15.33
2023-05-04T06:51:58.625Z,15.60
2023-05-04T06:54:31.936Z,15.73
2023-05-04T06:57:04.945Z,15.87
2023-05-04T06:59:38.000Z,15.95
2023-05-04T07:02:11.758Z,15.46
2023-05-04T07:04:44.562Z,15.15
2023-05-04T07:07:16.592Z,14.95
2023-05-04T07:09:51.590Z,14.91
2023-05-04T07:15:17.882Z,15.07
2023-05-04T07:17:52.913Z,15.49
2023-05-04T07:20:26.585Z,16.57
2023-05-04T07:23:51.827Z,18.67
2023-05-04T07:26:27.645Z,20.80
2023-05-04T07:29:00.043Z,22.07
2023-05-04T07:31:34.113Z,22.46
2023-05-04T07:34:07.297Z,22.68
2023-05-04T07:36:43.179Z,24.55
2023-05-04T07:39:18.333Z,25.52
2023-05-04T07:41:52.308Z,24.25
2023-05-04T07:44:24.165Z,26.54
2023-05-04T07:47:00.764Z,23.90
2023-05-04T07:49:33.119Z,24.20
2023-05-04T07:52:06.240Z,24.51
2023-05-04T07:54:46.059Z,23.48
2023-05-04T07:57:18.348Z,24.07
2023-05-04T07:59:55.999Z,23.95
2023-05-04T08:02:55.167Z,25.24
2023-05-04T08:05:27.553Z,26.40
2023-05-04T08:08:03.258Z,27.52
2023-05-04T08:10:47.140Z,27.32
2023-05-04T08:13:21.282Z,27.46
2023-05-04T08:18:44.041Z,26.42
2023-05-04T08:21:16.032Z,24.56
2023-05-04T08:23:53.025Z,24.53
2023-05-04T08:26:25.006Z,26.15
2023-05-04T08:29:11.066Z,26.88
2023-05-04T08:31:43.439Z,27.47
2023-05-04T08:34:17.254Z,28.31
2023-05-04T08:36:50.286Z,26.31
2023-05-04T08:39:23.346Z,25.59
2023-05-04T08:41:56.982Z,27.28
2023-05-04T08:44:29.514Z,26.25
2023-05-04T08:47:07.382Z,25.04
2023-05-04T08:49:46.872Z,25.31
2023-05-04T08:58:17.293Z,27.72
2023-05-04T09:00:50.429Z,29.00
2023-05-04T09:03:22.927Z,29.78
2023-05-04T09:05:57.095Z,27.54
2023-05-04T09:08:31.835Z,26.92
2023-05-04T09:11:05.472Z,29.54
2023-05-04T09:13:38.630Z,30.32
2023-05-04T09:16:12.805Z,30.65
2023-05-04T09:18:47.398Z,26.80
2023-05-04T09:21:32.722Z,26.03
2023-05-04T09:24:05.534Z,28.37
2023-05-04T09:26:38.526Z,28.84
2023-05-04T09:29:16.129Z,27.55
2023-05-04T09:31:51.356Z,27.44
2023-05-04T09:34:24.151Z,25.87
2023-05-04T09:37:04.151Z,25.85
2023-05-04T09:39:38.622Z,26.80
2023-05-04T09:42:18.938Z,25.92
2023-05-04T09:45:08.937Z,26.97
2023-05-04T09:47:43.743Z,26.13
2023-05-04T09:50:23.261Z,28.04
2023-05-04T09:52:57.113Z,26.70
2023-05-04T09:55:30.264Z,26.94
2023-05-04T09:58:03.454Z,26.38
2023-05-04T10:00:36.843Z,26.18
2023-05-04T10:03:09.179Z,26.99
2023-05-04T10:05:42.795Z,26.49
2023-05-04T10:08:17.437Z,26.32
2023-05-04T10:10:50.486Z,27.26
2023-05-04T10:13:24.865Z,25.49
2023-05-04T10:16:26.076Z,27.00
2023-05-04T10:19:10.214Z,26.29
2023-05-04T10:22:29.228Z,27.16
2023-05-04T10:25:27.994Z,27.29
2023-05-04T10:28:40.952Z,26.48
2023-05-04T10:31:12.962Z,25.46
2023-05-04T10:33:46.847Z,26.33
2023-05-04T10:36:18.931Z,26.58
2023-05-04T10:38:51.972Z,26.42
2023-05-04T10:41:24.302Z,26.77
2023-05-04T10:44:18.589Z,27.91
2023-05-04T10:46:59.726Z,27.41
2023-05-04T10:49:34.765Z,26.40
2023-05-04T10:52:17.929Z,25.42
2023-05-04T10:55:03.578Z,26.10
2023-05-04T10:57:51.749Z,26.69
2023-05-04T11:00:38.872Z,27.08
2023-05-04T11:03:13.791Z,26.85
2023-05-04T11:05:50.855Z,26.69
2023-05-04T11:08:26.524Z,26.79
2023-05-04T11:11:07.220Z,27.63
2023-05-04T11:13:48.634Z,28.17
2023-05-04T11:16:27.710Z,29.16
2023-05-04T11:19:18.701Z,29.19
2023-05-04T11:21:50.935Z,28.82
2023-05-04T11:24:48.021Z,27.76
2023-05-04T11:27:29.066Z,26.87
2023-05-04T11:30:07.478Z,26.40
2023-05-04T11:32:49.589Z,26.24
2023-05-04T11:35:26.028Z,27.35
2023-05-04T11:37:58.595Z,27.82
2023-05-04T11:40:31.642Z,27.39
2023-05-04T11:43:04.291Z,26.71
2023-05-04T11:45:38.870Z,26.45
2023-05-04T11:48:11.101Z,26.34
2023-05-04T11:50:46.845Z,26.24
2023-05-04T11:53:22.158Z,26.66
2023-05-04T11:56:02.893Z,26.54
2023-05-04T11:58:35.117Z,26.92
2023-05-04T12:01:08.317Z,26.44
2023-05-04T12:03:53.196Z,27.24
2023-05-04T12:06:34.184Z,26.48
2023-05-04T12:09:06.833Z,26.87
2023-05-04T12:11:40.669Z,27.08
2023-05-04T12:14:14.887Z,26.45
2023-05-04T12:16:55.705Z,26.13
2023-05-04T12:19:27.703Z,26.39
2023-05-04T12:22:04.389Z,26.20
2023-05-04T12:24:36.954Z,26.84
2023-05-04T12:27:16.820Z,27.86
2023-05-04T12:29:48.825Z,28.10
2023-05-04T12:32:22.059Z,27.54
2023-05-04T12:34:54.408Z,27.19
2023-05-04T12:37:28.339Z,26.78
2023-05-04T12:40:00.536Z,27.75
2023-05-04T12:42:33.801Z,27.11
2023-05-04T12:45:06.641Z,27.70
2023-05-04T12:47:40.125Z,28.20
2023-05-04T12:50:12.442Z,27.89
2023-05-04T12:52:46.517Z,28.05
2023-05-04T12:55:19.431Z,27.48
2023-05-04T13:00:46.177Z,26.69
2023-05-04T13:03:19.268Z,26.73
2023-05-04T13:05:51.757Z,27.25
2023-05-04T13:08:25.598Z,27.00
2023-05-04T13:10:57.489Z,26.90
2023-05-04T13:13:31.350Z,27.19
2023-05-04T13:16:28.704Z,27.40
2023-05-04T13:19:01.104Z,27.92
2023-05-04T13:21:33.082Z,27.43
2023-05-04T13:24:07.804Z,27.36
2023-05-04T13:26:39.710Z,26.79
2023-05-04T13:29:12.525Z,26.83
2023-05-04T13:31:45.363Z,27.63
2023-05-04T13:34:18.658Z,27.89
2023-05-04T13:36:50.795Z,27.02
2023-05-04T13:39:24.163Z,27.68
2023-05-04T13:41:56.449Z,27.99
2023-05-04T13:44:28.941Z,27.91
2023-05-04T13:47:03.575Z,27.66
2023-05-04T13:49:40.396Z,27.88
2023-05-04T13:52:13.517Z,27.87
2023-05-04T13:54:46.801Z,27.98
2023-05-04T13:57:19.244Z,27.93
2023-05-04T14:00:05.894Z,27.87
2023-05-04T14:02:43.236Z,27.64
2023-05-04T14:05:16.198Z,27.06
2023-05-04T14:07:48.238Z,26.92
2023-05-04T14:10:21.413Z,27.07
2023-05-04T14:12:53.787Z,27.39
2023-05-04T14:15:27.539Z,27.58
2023-05-04T14:18:00.842Z,27.60
2023-05-04T14:20:32.977Z,27.19
2023-05-04T14:23:06.238Z,26.92
2023-05-04T14:25:38.855Z,27.00
2023-05-04T14:28:11.636Z,27.41
2023-05-04T14:30:44.016Z,27.35
2023-05-04T14:33:16.725Z,26.98
2023-05-04T14:35:49.636Z,27.15
2023-05-04T14:38:21.498Z,27.39
2023-05-04T14:40:59.067Z,27.25
2023-05-04T14:43:31.463Z,27.63
2023-05-04T14:46:05.578Z,27.97
2023-05-04T14:48:37.719Z,27.86
2023-05-04T14:54:07.588Z,27.68
2023-05-04T14:56:40.108Z,27.33
2023-05-04T14:59:12.435Z,27.80
2023-05-04T15:01:45.905Z,27.68
2023-05-04T15:04:21.910Z,27.85
2023-05-04T15:06:53.809Z,28.19
2023-05-04T15:09:27.265Z,27.96
2023-05-04T15:11:59.255Z,28.05
2023-05-04T15:14:32.131Z,28.42
2023-05-04T15:17:05.596Z,27.80
2023-05-04T15:19:39.693Z,27.47
2023-05-04T15:22:11.594Z,27.77
2023-05-04T15:24:44.904Z,27.72
2023-05-04T15:27:16.840Z,27.49
2023-05-04T15:29:49.774Z,27.13
2023-05-04T15:32:22.215Z,26.94
2023-05-04T15:35:04.471Z,26.57
2023-05-04T15:37:38.253Z,26.56
2023-05-04T15:40:11.920Z,26.58
2023-05-04T15:43:03.703Z,26.63
2023-05-04T15:45:37.481Z,26.79
2023-05-04T15:48:09.928Z,27.16
2023-05-04T15:50:42.854Z,27.41
2023-05-04T15:53:15.674Z,27.29
2023-05-04T15:55:48.437Z,27.49
2023-05-04T15:58:20.859Z,27.61
2023-05-04T16:00:52.810Z,27.74
2023-05-04T16:03:26.143Z,27.79
2023-05-04T16:05:58.506Z,27.52
2023-05-04T16:08:31.828Z,27.49
2023-05-04T16:11:04.511Z,27.29
2023-05-04T16:13:37.925Z,27.15
2023-05-04T16:16:10.076Z,27.09
2023-05-04T16:18:43.645Z,27.50
2023-05-04T16:21:15.953Z,27.54
2023-05-04T16:23:49.009Z,27.43
2023-05-04T16:26:21.086Z,27.22
2023-05-04T16:28:53.980Z,27.15
2023-05-04T16:31:26.728Z,27.01
2023-05-04T16:33:58.728Z,27.13
2023-05-04T16:36:32.414Z,27.22
2023-05-04T16:39:04.759Z,27.17
2023-05-04T16:41:36.833Z,26.79
2023-05-04T16:44:09.766Z,26.49
2023-05-04T16:46:41.986Z,26.65
2023-05-04T16:49:15.209Z,26.81
2023-05-04T16:51:47.371Z,26.94
2023-05-04T16:54:21.011Z,26.84
2023-05-04T16:56:53.820Z,26.76
2023-05-04T16:59:26.250Z,26.75
2023-05-04T17:01:59.732Z,26.78
2023-05-04T17:04:32.452Z,26.81
2023-05-04T17:07:04.498Z,26.64
2023-05-04T17:09:37.762Z,26.48
2023-05-04T17:12:09.683Z,26.52
2023-05-04T17:14:43.577Z,26.29
2023-05-04T17:17:16.188Z,26.15
2023-05-04T17:19:49.757Z,26.08
2023-05-04T17:22:21.740Z,25.99
2023-05-04T17:24:54.487Z,25.82
2023-05-04T17:27:27.234Z,25.71
2023-05-04T17:29:59.944Z,25.61
2023-05-04T17:32:32.308Z,25.40
2023-05-04T17:35:20.078Z,25.37
2023-05-04T17:37:58.751Z,25.24
2023-05-04T17:40:32.019Z,25.06
2023-05-04T17:43:04.301Z,25.02
2023-05-04T17:45:36.955Z,24.96
2023-05-04T17:48:09.381Z,25.07
2023-05-04T17:50:41.751Z,25.16
2023-05-04T17:53:14.584Z,25.18
2023-05-04T17:55:46.970Z,25.15
2023-05-04T17:58:19.793Z,24.98
2023-05-04T18:00:52.994Z,24.88
2023-05-04T18:03:26.715Z,24.85
2023-05-04T18:05:58.627Z,24.84
2023-05-04T18:08:31.561Z,24.75
2023-05-04T18:11:03.928Z,24.73
2023-05-04T18:13:36.213Z,24.57
2023-05-04T18:16:09.264Z,24.48
2023-05-04T18:18:42.363Z,24.40
2023-05-04T18:21:15.542Z,24.25
2023-05-04T18:23:47.414Z,24.08
2023-05-04T18:31:49.602Z,23.51
2023-05-04T18:34:22.414Z,23.37
2023-05-04T18:36:54.475Z,23.29
2023-05-04T18:39:28.498Z,23.01
2023-05-04T18:42:01.764Z,22.91
2023-05-04T18:44:34.560Z,22.88
2023-05-04T18:47:07.841Z,22.86
2023-05-04T18:49:40.601Z,22.90
2023-05-04T18:52:12.530Z,22.81
2023-05-04T18:54:46.426Z,22.59
2023-05-04T18:57:36.968Z,22.34
2023-05-04T19:00:10.649Z,22.14
2023-05-04T19:02:43.366Z,22.02
2023-05-04T19:05:15.356Z,21.88
2023-05-04T19:07:50.695Z,21.71
2023-05-04T19:10:23.030Z,21.51
2023-05-04T19:12:56.322Z,21.27
2023-05-04T19:15:28.598Z,21.27
2023-05-04T19:18:01.839Z,21.21
2023-05-04T19:20:37.588Z,21.03
2023-05-04T19:23:12.530Z,21.01
2023-05-04T19:25:45.260Z,21.06
2023-05-04T19:28:19.467Z,21.18
2023-05-04T19:30:52.851Z,20.94
2023-05-04T19:33:36.292Z,20.92
2023-05-04T19:36:18.277Z,20.93
2023-05-04T19:38:50.213Z,21.06
2023-05-04T19:41:27.039Z,21.22
2023-05-04T19:43:58.887Z,21.33
2023-05-04T19:46:32.357Z,21.23
2023-05-04T19:49:04.742Z,21.41
2023-05-04T19:51:38.398Z,21.51
2023-05-04T19:54:13.662Z,21.35
2023-05-04T19:56:46.298Z,21.41
2023-05-04T19:59:22.852Z,21.49
2023-05-04T20:01:55.237Z,21.34
2023-05-04T20:04:28.650Z,21.31
2023-05-04T20:07:01.555Z,21.29
2023-05-04T20:09:33.863Z,21.14
2023-05-04T20:12:06.416Z,21.07
2023-05-04T20:14:39.368Z,20.85
2023-05-04T20:17:12.467Z,21.10
2023-05-04T20:19:46.510Z,20.95
2023-05-04T20:22:18.891Z,20.80
2023-05-04T20:24:51.831Z,20.82
2023-05-04T20:27:23.885Z,21.05
2023-05-04T20:29:57.002Z,20.67
2023-05-04T20:32:30.426Z,20.65
2023-05-04T20:35:04.058Z,20.18
2023-05-04T20:37:59.233Z,19.97
2023-05-04T20:40:32.452Z,19.95
2023-05-04T20:43:05.275Z,20.24
2023-05-04T20:45:38.083Z,20.05
2023-05-04T20:48:09.967Z,19.87
2023-05-04T20:50:42.704Z,19.72
2023-05-04T20:56:08.768Z,19.77
2023-05-04T20:58:41.188Z,19.52
2023-05-04T21:01:14.195Z,19.35
2023-05-04T21:03:47.147Z,19.26
2023-05-04T21:06:19.123Z,19.18
2023-05-04T21:08:51.965Z,19.06
2023-05-04T21:11:24.223Z,19.16
2023-05-04T21:13:56.518Z,19.05
2023-05-04T21:16:29.941Z,18.85
2023-05-04T21:19:01.909Z,18.87
2023-05-04T21:21:39.385Z,18.72
2023-05-04T21:24:13.276Z,18.77
2023-05-04T21:26:46.369Z,18.79
2023-05-04T21:29:19.505Z,18.62
2023-05-04T21:31:52.086Z,18.96
2023-05-04T21:34:24.869Z,19.09
2023-05-04T21:36:58.028Z,18.82
2023-05-04T21:39:30.424Z,18.74
2023-05-04T21:42:03.613Z,18.70
2023-05-04T21:44:36.004Z,18.83
2023-05-04T21:47:07.913Z,18.75
2023-05-04T21:49:40.887Z,18.60
2023-05-04T21:52:32.638Z,18.69
2023-05-04T21:55:05.107Z,18.50
2023-05-04T21:57:38.380Z,18.58
2023-05-04T22:00:18.152Z,18.28
2023-05-04T22:02:53.884Z,18.38
2023-05-04T22:05:26.643Z,18.18
2023-05-04T22:08:00.809Z,18.15
2023-05-04T22:10:33.528Z,18.07
2023-05-04T22:13:06.502Z,18.02
2023-05-04T22:15:49.311Z,17.85
2023-05-04T22:18:22.494Z,17.64
2023-05-04T22:20:55.316Z,17.62
2023-05-04T22:23:27.239Z,17.68
2023-05-04T22:25:59.979Z,17.63
2023-05-04T22:28:32.312Z,17.56
2023-05-04T22:31:06.212Z,17.56
2023-05-04T22:33:38.617Z,17.44
2023-05-04T22:36:12.246Z,17.38
2023-05-04T22:38:44.519Z,17.46
2023-05-04T22:41:17.662Z,17.29
2023-05-04T22:43:49.506Z,17.38
2023-05-04T22:46:22.732Z,17.14
2023-05-04T22:48:54.656Z,17.20
2023-05-04T22:51:27.825Z,17.22
2023-05-04T22:53:59.834Z,17.21
2023-05-04T22:56:33.458Z,17.16
2023-05-04T22:59:06.675Z,17.18
2023-05-04T23:01:43.704Z,17.21
2023-05-04T23:04:16.626Z,17.21
2023-05-04T23:06:48.901Z,17.23
2023-05-04T23:09:21.231Z,17.17
2023-05-04T23:11:53.843Z,17.20
2023-05-04T23:14:26.532Z,17.18
2023-05-04T23:16:59.511Z,17.00
2023-05-04T23:19:32.349Z,16.94
2023-05-04T23:22:05.042Z,16.94
2023-05-04T23:24:37.173Z,17.03
2023-05-04T23:27:11.531Z,17.03
2023-05-04T23:29:43.848Z,16.93
2023-05-04T23:32:16.319Z,16.75
2023-05-04T23:34:49.055Z,17.31
2023-05-04T23:37:21.339Z,17.64
2023-05-04T23:39:54.094Z,17.37
2023-05-04T23:42:26.543Z,17.37
2023-05-04T23:44:59.212Z,17.76
2023-05-04T23:47:31.535Z,17.85
2023-05-04T23:50:05.621Z,17.83
2023-05-04T23:52:37.961Z,17.52
2023-05-04T23:55:10.646Z,17.64
2023-05-04T23:57:45.837Z,17.34
